Malaysia Virtual Airlines Airport Information Service

Kota Bharu

ICAO: WMKC Country: Malaysia
Latitude: 6.16685 Longitude: 102.293
Latest Arrival : MH1384 (WMKK-WMKC) Latest Departure : MH1385 (WMKC-WMKK)


WX CaptureLIVE
Data provided by noaa.gov | Fetched at 07:04:23

METAR : WMKC 160600Z 08010KT 040V120 9999 SCT018 33/27 Q1010

TAF : WMKC 160500Z 1606/1706 04006KT 9999 FEW018 BECMG 1612/1614 VRB03KT FEW020 BECMG 1623/1700 FEW018


Runway Data for WMKC
Data provided by openaviationdata.com

Runway ID Mag Var Hdg Length Elevation Surface ILS Freq ILS Id ILS Slope
10 1 100° 6499 ft 16 ft Asphalt -- -- --
28 1 280° 6499 ft 16 ft Asphalt -- -- --

Kota Bharu, Malaysia
Use only for reference purposes



Not for navigational purposes.